Time;durP1;ratioP1;P1;durP2;ratioP2;P2;SDS_P1;SDS_P2;PMS_P1;PMS_P2;Temp;Humidity;BMP_temperature;BMP_pressure;BME280_temperature;BME280_humidity;BME280_pressure;Samples;Min_cycle;Max_cycle;Signal;HPM_P1;HPM_P2
2021/05/19 00:01:52;;;;;;;4.55;4.15;;;;;;;11.21;68.02;100743.06;4952700;28;20047;-80
2021/05/19 00:04:17;;;;;;;5.63;4.25;;;;;;;11.21;67.78;100756.16;4947267;28;20090;-76
2021/05/19 00:06:47;;;;;;;4.88;4.18;;;;;;;11.22;67.96;100750.94;4952369;28;20043;-83
2021/05/19 00:09:15;;;;;;;4.68;4.20;;;;;;;11.29;67.72;100745.59;4953150;28;20092;-76
2021/05/19 00:11:45;;;;;;;6.80;5.32;;;;;;;11.23;67.67;100750.03;4952518;28;20085;-86
2021/05/19 00:14:17;;;;;;;6.63;4.88;;;;;;;11.26;67.82;100754.38;4966916;28;20045;-78
2021/05/19 00:16:46;;;;;;;6.88;4.80;;;;;;;11.29;67.44;100749.13;4934280;28;20093;-76
2021/05/19 00:19:14;;;;;;;7.40;4.78;;;;;;;11.29;67.76;100751.72;4924478;28;20154;-79
2021/05/19 00:21:40;;;;;;;4.50;3.97;;;;;;;11.28;67.81;100752.59;4950843;28;20069;-80
2021/05/19 00:24:07;;;;;;;6.43;4.72;;;;;;;11.28;68.01;100749.09;4937207;28;20485;-87
2021/05/19 00:26:35;;;;;;;6.45;4.35;;;;;;;11.28;67.98;100746.47;4968674;28;20070;-83
2021/05/19 00:29:04;;;;;;;6.40;4.63;;;;;;;11.29;68.05;100751.72;4964230;28;20125;-78
2021/05/19 00:31:33;;;;;;;5.13;4.63;;;;;;;11.31;67.76;100749.09;4983921;28;20089;-77
2021/05/19 00:34:00;;;;;;;6.43;4.60;;;;;;;11.30;67.90;100755.22;4946773;28;20035;-77
2021/05/19 00:36:26;;;;;;;8.32;4.65;;;;;;;11.29;67.99;100751.72;4951956;28;20055;-80
2021/05/19 00:38:53;;;;;;;6.10;4.95;;;;;;;11.23;67.88;100750.03;4954406;28;20035;-82
2021/05/19 00:41:19;;;;;;;7.70;5.75;;;;;;;11.20;68.30;100750.06;4947799;28;20790;-78
2021/05/19 00:43:45;;;;;;;5.03;4.53;;;;;;;11.15;68.20;100745.75;4946867;28;20047;-78
2021/05/19 00:46:13;;;;;;;6.53;4.85;;;;;;;11.14;68.41;100746.63;4950919;28;22076;-80
2021/05/19 00:48:39;;;;;;;8.43;5.32;;;;;;;11.13;68.56;100742.28;4953386;28;20660;-83
2021/05/19 00:51:06;;;;;;;7.03;6.10;;;;;;;11.09;68.77;100739.69;4942175;28;20048;-76
2021/05/19 00:53:33;;;;;;;6.88;5.55;;;;;;;11.10;68.99;100740.56;4958513;28;20353;-82
2021/05/19 00:55:58;;;;;;;8.00;5.45;;;;;;;11.09;68.65;100744.06;4952081;28;20038;-77
2021/05/19 00:58:24;;;;;;;6.57;5.63;;;;;;;11.08;68.88;100744.94;4951514;28;20058;-82
2021/05/19 01:00:49;;;;;;;6.28;4.68;;;;;;;11.12;68.89;100745.78;4969844;28;20117;-84
2021/05/19 01:03:15;;;;;;;6.63;4.93;;;;;;;11.16;68.45;100753.59;4951385;28;20058;-80
2021/05/19 01:06:27;;;;;;;6.85;5.03;;;;;;;11.17;68.58;100746.59;4963351;28;20136;-80
2021/05/19 01:11:15;;;;;;;7.15;5.85;;;;;;;11.11;68.40;100744.03;4949376;28;20403;-85
2021/05/19 01:13:45;;;;;;;5.97;4.45;;;;;;;11.09;68.78;100749.28;4963834;28;20053;-84
2021/05/19 01:16:15;;;;;;;6.13;5.05;;;;;;;11.11;68.90;100750.16;4954673;28;20047;-79
2021/05/19 01:18:42;;;;;;;7.13;5.25;;;;;;;11.12;68.66;100746.66;4933060;28;20194;-82
2021/05/19 01:21:11;;;;;;;6.93;5.15;;;;;;;11.11;68.68;100754.50;4947438;28;20047;-76
2021/05/19 01:23:39;;;;;;;6.05;4.57;;;;;;;11.06;68.40;100755.44;4925786;28;20057;-80
2021/05/19 01:26:08;;;;;;;6.95;5.63;;;;;;;11.06;68.67;100744.94;4933841;28;20098;-82
2021/05/19 01:28:35;;;;;;;6.55;4.82;;;;;;;11.05;68.88;100750.22;4945304;28;20043;-79
2021/05/19 01:31:03;;;;;;;8.23;5.55;;;;;;;11.05;68.89;100755.44;4959001;28;20517;-80
2021/05/19 01:33:31;;;;;;;5.95;5.20;;;;;;;11.01;69.04;100751.97;4948329;28;20051;-76
2021/05/19 01:35:57;;;;;;;9.70;4.90;;;;;;;11.01;69.04;100753.75;4959071;28;20062;-76
2021/05/19 01:38:23;;;;;;;6.78;5.55;;;;;;;11.04;69.09;100758.94;4980812;28;20125;-85
2021/05/19 01:40:50;;;;;;;5.85;3.72;;;;;;;11.04;68.84;100754.59;4945660;28;20046;-78
2021/05/19 01:43:16;;;;;;;6.65;5.20;;;;;;;11.06;69.09;100754.56;4943686;28;20055;-82
2021/05/19 01:45:42;;;;;;;5.28;4.75;;;;;;;11.07;68.91;100749.31;4952083;28;20093;-80
2021/05/19 01:48:16;;;;;;;5.43;4.50;;;;;;;11.08;68.85;100755.41;4944015;28;20671;-77
2021/05/19 01:50:42;;;;;;;6.43;4.50;;;;;;;11.09;68.70;100752.81;4966100;28;20129;-84
2021/05/19 01:53:11;;;;;;;4.68;4.25;;;;;;;11.10;69.02;100764.13;4943031;28;20038;-79
2021/05/19 01:55:37;;;;;;;7.50;4.88;;;;;;;11.09;68.89;100757.16;4950580;28;20050;-82
2021/05/19 01:58:02;;;;;;;9.70;5.72;;;;;;;11.08;68.93;100755.41;4945587;28;20049;-80
2021/05/19 02:00:28;;;;;;;6.57;5.10;;;;;;;11.07;69.02;100765.03;4947695;28;20038;-80
2021/05/19 02:03:04;;;;;;;5.75;4.47;;;;;;;11.09;68.68;100754.53;4945176;28;20051;-78
2021/05/19 02:05:33;;;;;;;5.20;4.32;;;;;;;11.07;68.64;100758.94;4928613;28;20150;-84
2021/05/19 02:08:04;;;;;;;5.47;4.50;;;;;;;11.08;68.56;100764.16;4933341;28;20486;-76
2021/05/19 02:10:33;;;;;;;11.15;5.25;;;;;;;11.05;69.03;100772.03;4939751;28;20603;-76
2021/05/19 02:13:04;;;;;;;6.70;4.97;;;;;;;11.06;68.87;100755.44;4961697;28;20039;-76
2021/05/19 02:15:30;;;;;;;6.65;3.95;;;;;;;11.14;68.82;100767.59;4920650;28;20062;-78
2021/05/19 02:17:58;;;;;;;6.35;4.40;;;;;;;11.09;69.00;100768.53;4963191;28;20034;-77
2021/05/19 02:20:26;;;;;;;6.38;4.45;;;;;;;11.14;68.57;100776.31;4953870;28;20042;-76
2021/05/19 02:22:52;;;;;;;7.32;4.47;;;;;;;11.17;68.76;100772.81;4956885;28;20054;-80
2021/05/19 02:25:21;;;;;;;5.00;4.50;;;;;;;11.16;68.87;100769.31;4967583;28;20053;-80
2021/05/19 02:27:51;;;;;;;6.30;4.50;;;;;;;11.18;68.45;100764.06;4956173;28;20465;-77
2021/05/19 02:30:18;;;;;;;7.35;4.28;;;;;;;11.21;68.61;100775.38;4930654;28;20503;-80
2021/05/19 02:32:45;;;;;;;6.30;4.35;;;;;;;11.16;68.68;100765.81;4963222;28;20062;-78
2021/05/19 02:35:13;;;;;;;4.35;3.67;;;;;;;11.12;68.96;100772.88;4977748;28;20098;-77
2021/05/19 02:37:40;;;;;;;4.07;3.72;;;;;;;11.12;68.57;100762.38;4983119;28;20051;-83
2021/05/19 02:40:11;;;;;;;5.93;4.47;;;;;;;11.14;69.04;100759.75;4946576;28;20061;-87
2021/05/19 02:42:36;;;;;;;4.88;3.83;;;;;;;11.13;69.00;100763.25;4949042;28;20061;-82
2021/05/19 02:45:06;;;;;;;4.40;4.00;;;;;;;11.14;68.96;100767.59;4982381;28;20395;-81
2021/05/19 02:47:33;;;;;;;5.50;4.38;;;;;;;11.15;68.84;100764.09;4947539;28;22138;-76
2021/05/19 02:49:58;;;;;;;4.53;4.10;;;;;;;11.17;68.77;100764.94;4948306;28;20051;-78
2021/05/19 02:52:24;;;;;;;6.55;3.55;;;;;;;11.20;68.29;100770.16;4943645;28;20047;-80
2021/05/19 02:54:50;;;;;;;5.63;4.72;;;;;;;11.22;68.54;100769.28;4965655;28;20392;-77
2021/05/19 02:57:16;;;;;;;5.07;3.90;;;;;;;11.22;68.39;100773.63;4981353;28;20038;-79
2021/05/19 02:59:41;;;;;;;7.88;4.35;;;;;;;11.19;68.75;100766.66;4947175;28;20085;-77
2021/05/19 03:02:09;;;;;;;4.45;3.97;;;;;;;11.18;68.40;100778.03;4962874;28;20047;-81
2021/05/19 03:04:35;;;;;;;7.47;3.58;;;;;;;11.17;68.58;100781.56;4945226;28;20097;-83
2021/05/19 03:07:03;;;;;;;4.85;4.35;;;;;;;11.17;68.64;100783.28;4949717;28;20069;-79
2021/05/19 03:09:29;;;;;;;6.53;4.43;;;;;;;11.12;68.66;100782.44;4966899;28;20114;-75
2021/05/19 03:11:54;;;;;;;5.72;4.63;;;;;;;11.09;68.85;100784.25;4946761;28;20064;-79
2021/05/19 03:14:20;;;;;;;5.63;4.93;;;;;;;11.07;69.04;100785.13;4960614;28;20047;-76
2021/05/19 03:16:46;;;;;;;11.18;5.38;;;;;;;11.05;68.96;100782.50;4956227;28;20552;-77
2021/05/19 03:19:12;;;;;;;5.90;4.90;;;;;;;11.00;69.62;100792.19;4963572;28;20432;-75
2021/05/19 03:21:38;;;;;;;8.32;4.32;;;;;;;10.98;69.62;100782.59;4980681;28;20057;-76
2021/05/19 03:24:05;;;;;;;8.52;5.53;;;;;;;10.98;69.56;100788.69;4941578;28;20636;-81
2021/05/19 03:26:30;;;;;;;4.95;4.00;;;;;;;10.99;69.77;100792.16;4949707;28;20094;-78
2021/05/19 03:28:56;;;;;;;7.80;5.68;;;;;;;11.01;69.57;100782.56;4942451;28;20121;-82
2021/05/19 03:31:22;;;;;;;8.50;4.82;;;;;;;11.02;69.74;100785.16;4949750;28;20046;-76
2021/05/19 03:33:47;;;;;;;5.43;4.45;;;;;;;11.06;69.45;100788.63;4945679;28;20204;-79
2021/05/19 03:36:14;;;;;;;7.43;5.07;;;;;;;11.04;69.58;100791.25;4946597;28;20038;-76
2021/05/19 03:38:40;;;;;;;6.10;4.70;;;;;;;10.98;69.69;100790.47;4965863;28;20042;-81
2021/05/19 03:41:07;;;;;;;6.30;4.57;;;;;;;10.94;69.73;100802.69;4961393;28;20078;-78
2021/05/19 03:43:38;;;;;;;7.40;5.60;;;;;;;10.92;70.02;100800.09;4979068;28;20086;-79
2021/05/19 03:46:05;;;;;;;9.48;6.78;;;;;;;10.97;69.62;100801.81;4969496;28;20062;-79
2021/05/19 03:48:33;;;;;;;6.05;4.78;;;;;;;10.99;69.77;100803.53;4933501;28;20869;-76
2021/05/19 03:51:01;;;;;;;5.90;4.20;;;;;;;11.01;69.82;100803.50;4969105;28;20039;-86
2021/05/19 03:53:27;;;;;;;6.43;5.25;;;;;;;11.02;69.86;100800.03;4954558;28;20077;-76
2021/05/19 03:55:58;;;;;;;8.30;5.50;;;;;;;11.04;69.78;100800.84;4954771;28;20053;-77
2021/05/19 03:58:25;;;;;;;6.63;5.40;;;;;;;11.03;69.62;100809.59;4954900;28;20043;-79
2021/05/19 04:00:51;;;;;;;9.50;5.72;;;;;;;11.03;69.73;100812.22;4943010;28;20133;-81
2021/05/19 04:03:16;;;;;;;8.82;5.30;;;;;;;11.07;69.59;100806.09;4931387;28;20070;-79
2021/05/19 04:05:42;;;;;;;8.60;4.97;;;;;;;11.10;69.72;100798.19;4928501;28;20550;-77
2021/05/19 04:08:09;;;;;;;11.57;6.15;;;;;;;11.08;69.64;100806.06;4931777;28;20126;-75
2021/05/19 04:10:36;;;;;;;9.48;5.60;;;;;;;11.06;69.53;100807.81;4937474;28;20054;-79
2021/05/19 04:13:05;;;;;;;11.07;6.57;;;;;;;11.05;69.50;100813.94;4943087;28;20054;-75
2021/05/19 04:15:31;;;;;;;9.65;6.25;;;;;;;11.06;69.36;100815.69;4954020;28;20500;-76
2021/05/19 04:17:57;;;;;;;8.38;5.60;;;;;;;11.08;69.17;100813.94;4944272;28;20046;-75
2021/05/19 04:20:24;;;;;;;7.40;5.25;;;;;;;11.09;69.51;100812.16;4969176;28;20084;-77
2021/05/19 04:22:49;;;;;;;8.40;5.32;;;;;;;11.14;69.53;100820.00;4949257;28;20509;-79
2021/05/19 04:25:17;;;;;;;8.68;5.88;;;;;;;11.17;69.03;100814.72;4954574;28;20054;-74
2021/05/19 04:27:44;;;;;;;9.60;6.00;;;;;;;11.17;68.79;100831.34;4984268;28;20043;-75
2021/05/19 04:30:12;;;;;;;7.72;5.22;;;;;;;11.19;69.03;100829.56;4948313;28;20043;-75
2021/05/19 04:32:38;;;;;;;6.80;5.38;;;;;;;11.19;69.07;100831.31;4950988;28;20046;-77
2021/05/19 04:35:06;;;;;;;6.63;5.47;;;;;;;11.19;68.79;100832.16;4949087;28;20853;-79
2021/05/19 04:37:32;;;;;;;7.35;5.07;;;;;;;11.14;69.02;100831.34;4938108;28;20425;-76
2021/05/19 04:39:57;;;;;;;8.40;6.22;;;;;;;11.13;68.94;100829.59;4940526;28;20914;-75
2021/05/19 04:42:24;;;;;;;7.03;4.72;;;;;;;11.07;69.49;100832.28;4961917;28;20055;-76
2021/05/19 04:44:50;;;;;;;7.63;5.97;;;;;;;11.14;68.93;100835.72;4953872;28;20623;-78
2021/05/19 04:47:15;;;;;;;8.82;5.82;;;;;;;11.14;69.02;100846.19;4948378;28;20054;-78
2021/05/19 04:49:41;;;;;;;5.68;4.85;;;;;;;11.17;69.01;100849.69;4954025;28;20047;-76
2021/05/19 04:52:06;;;;;;;8.05;5.45;;;;;;;11.19;68.92;100850.50;4980127;28;20109;-79
2021/05/19 04:54:33;;;;;;;8.23;5.60;;;;;;;11.24;69.07;100847.88;4947095;28;20173;-78
2021/05/19 04:57:01;;;;;;;9.68;6.30;;;;;;;11.30;69.08;100852.19;4951017;28;20038;-75
2021/05/19 04:59:26;;;;;;;7.95;6.15;;;;;;;11.34;68.76;100853.88;4947362;28;20093;-80
2021/05/19 05:01:54;;;;;;;8.13;5.55;;;;;;;11.40;68.67;100866.94;4984057;28;20050;-75
2021/05/19 05:04:26;;;;;;;7.13;6.13;;;;;;;11.36;69.00;100866.09;4958435;28;20034;-78
2021/05/19 05:06:52;;;;;;;9.82;7.05;;;;;;;11.35;68.81;100869.59;4946048;28;20050;-78
2021/05/19 05:09:18;;;;;;;8.65;6.90;;;;;;;11.36;68.91;100863.47;4952528;28;20081;-78
2021/05/19 05:11:43;;;;;;;3.97;2.85;;;;;;;11.61;68.28;100859.75;4932914;28;20047;-73
2021/05/19 05:14:09;;;;;;;2.97;2.17;;;;;;;11.97;67.99;100861.16;4952073;28;20046;-73
2021/05/19 05:16:35;;;;;;;3.13;2.78;;;;;;;12.34;66.98;100858.06;4954368;28;20047;-78
2021/05/19 05:19:01;;;;;;;5.25;2.45;;;;;;;12.67;66.07;100860.25;4951574;28;20520;-74
2021/05/19 05:21:27;;;;;;;3.28;2.35;;;;;;;12.93;65.65;100864.25;4970980;28;20047;-74
2021/05/19 05:23:53;;;;;;;3.50;2.10;;;;;;;13.16;64.91;100863.91;4957832;28;20330;-78
2021/05/19 05:26:21;;;;;;;4.45;1.98;;;;;;;13.39;64.54;100868.81;4961049;28;20134;-78
2021/05/19 05:28:47;;;;;;;2.38;2.08;;;;;;;13.56;64.33;100865.88;4974386;28;20122;-77
2021/05/19 05:31:14;;;;;;;2.15;1.92;;;;;;;13.72;63.63;100869.94;4953248;28;20051;-82
2021/05/19 05:33:41;;;;;;;2.05;1.95;;;;;;;13.86;63.50;100869.69;4958223;28;20056;-76
2021/05/19 05:36:06;;;;;;;2.45;2.13;;;;;;;13.99;63.05;100874.75;4969437;28;20047;-76
2021/05/19 05:38:33;;;;;;;2.30;1.98;;;;;;;14.10;62.91;100862.22;4959120;28;20035;-73
2021/05/19 05:40:59;;;;;;;2.47;2.28;;;;;;;14.19;62.50;100867.28;4958237;28;21863;-80
2021/05/19 05:43:28;;;;;;;3.88;1.65;;;;;;;14.30;62.26;100869.72;4953573;28;20054;-74
2021/05/19 05:45:54;;;;;;;2.92;1.50;;;;;;;14.38;61.99;100875.69;4957240;28;20117;-74
2021/05/19 05:48:19;;;;;;;3.00;1.48;;;;;;;14.46;61.94;100872.88;4950331;28;20050;-78
2021/05/19 05:50:45;;;;;;;1.65;1.20;;;;;;;14.56;61.89;100878.81;4956865;28;20043;-80
2021/05/19 05:53:11;;;;;;;2.25;1.15;;;;;;;14.66;61.52;100874.25;4942447;28;20097;-78
2021/05/19 05:55:36;;;;;;;1.50;1.40;;;;;;;14.74;61.49;100879.34;4958983;28;20049;-79
2021/05/19 05:58:02;;;;;;;1.40;1.27;;;;;;;14.81;61.52;100881.81;4945846;28;20050;-79
2021/05/19 06:00:28;;;;;;;1.35;1.25;;;;;;;14.89;61.01;100887.75;4945074;28;20383;-80
2021/05/19 06:02:54;;;;;;;2.88;1.42;;;;;;;14.96;60.92;100885.00;4935247;28;20146;-79
2021/05/19 06:05:20;;;;;;;2.00;1.33;;;;;;;15.03;61.05;100891.84;4950403;28;20042;-77
2021/05/19 06:07:46;;;;;;;2.35;1.83;;;;;;;15.09;60.69;100880.28;4964637;28;20062;-80
2021/05/19 06:10:15;;;;;;;1.67;1.17;;;;;;;15.16;60.77;100889.78;4952189;28;20484;-81
2021/05/19 06:12:42;;;;;;;2.28;1.27;;;;;;;15.21;60.50;100894.06;4940622;28;20042;-79
2021/05/19 06:15:08;;;;;;;1.10;1.10;;;;;;;15.27;60.46;100897.44;4951115;28;20126;-77
2021/05/19 06:17:34;;;;;;;1.08;1.00;;;;;;;15.31;60.59;100889.41;4931172;28;20035;-81
2021/05/19 06:20:00;;;;;;;1.30;1.20;;;;;;;15.35;60.16;100888.41;4953401;28;20316;-80
2021/05/19 06:22:26;;;;;;;1.88;1.33;;;;;;;15.42;60.17;100898.81;4966931;28;20054;-82
2021/05/19 06:24:52;;;;;;;1.58;1.48;;;;;;;15.45;59.95;100896.97;4947138;28;20105;-79
2021/05/19 06:27:19;;;;;;;1.50;1.38;;;;;;;15.49;59.90;100897.78;4964428;28;20050;-79
2021/05/19 06:29:44;;;;;;;1.50;1.35;;;;;;;15.53;59.92;100900.28;4962135;28;20489;-77
2021/05/19 06:32:10;;;;;;;4.15;1.70;;;;;;;15.58;59.52;100901.94;4947400;28;20090;-78
2021/05/19 06:34:37;;;;;;;1.42;1.33;;;;;;;15.60;59.45;100894.84;4947427;28;20055;-78
2021/05/19 06:37:05;;;;;;;1.45;1.35;;;;;;;15.63;59.34;100893.00;4952260;28;20597;-77
2021/05/19 06:39:32;;;;;;;1.48;1.38;;;;;;;15.65;59.45;100909.66;4961852;28;20493;-80
2021/05/19 06:41:57;;;;;;;3.20;1.50;;;;;;;15.70;59.14;100902.47;4953897;28;20118;-80
2021/05/19 06:44:24;;;;;;;1.52;1.33;;;;;;;15.75;59.08;100897.09;4959031;28;20046;-77
2021/05/19 06:46:50;;;;;;;5.18;1.67;;;;;;;15.80;58.93;100895.19;4959499;28;20090;-80
2021/05/19 06:49:17;;;;;;;1.73;1.60;;;;;;;15.85;58.83;100898.63;4970465;28;20165;-81
2021/05/19 06:51:43;;;;;;;4.18;2.45;;;;;;;15.88;58.67;100901.16;4979398;28;20054;-78
2021/05/19 06:54:10;;;;;;;1.70;1.60;;;;;;;15.93;58.84;100894.88;4968192;28;20090;-75
2021/05/19 06:56:47;;;;;;;1.90;1.73;;;;;;;15.98;58.67;100892.97;4977356;28;20039;-77
2021/05/19 06:59:16;;;;;;;1.48;1.17;;;;;;;16.00;58.69;100893.81;4948471;28;20924;-79
2021/05/19 07:01:41;;;;;;;2.10;1.98;;;;;;;16.03;58.34;100893.72;4968617;28;20086;-76
2021/05/19 07:04:08;;;;;;;2.38;1.73;;;;;;;16.07;58.50;100894.50;4976767;28;20043;-80
2021/05/19 07:06:34;;;;;;;2.85;1.85;;;;;;;16.12;58.26;100892.59;4958080;28;20485;-78
2021/05/19 07:09:00;;;;;;;2.45;1.90;;;;;;;16.14;58.25;100894.28;4960618;28;20383;-77
2021/05/19 07:11:27;;;;;;;2.25;1.92;;;;;;;16.17;58.04;100896.84;4976962;28;20050;-79
2021/05/19 07:13:55;;;;;;;2.90;1.92;;;;;;;16.19;58.20;100889.75;4955533;28;20097;-78
2021/05/19 07:16:24;;;;;;;2.80;1.85;;;;;;;16.22;58.01;100902.00;4946860;28;20070;-78
2021/05/19 07:18:55;;;;;;;1.88;1.45;;;;;;;16.24;57.94;100902.81;4956659;28;20043;-78
2021/05/19 07:21:22;;;;;;;2.78;2.03;;;;;;;16.28;57.79;100908.88;4951042;28;20573;-76
2021/05/19 07:23:50;;;;;;;2.78;1.80;;;;;;;16.31;57.97;100908.78;4977748;28;20851;-80
2021/05/19 07:26:15;;;;;;;3.40;1.98;;;;;;;16.32;57.77;100908.75;4963786;28;20197;-80
2021/05/19 07:28:41;;;;;;;3.70;1.85;;;;;;;16.35;57.61;100905.16;4953634;28;20498;-80
2021/05/19 07:31:07;;;;;;;2.67;2.05;;;;;;;16.37;57.62;100909.50;4929768;28;20106;-78
2021/05/19 07:33:34;;;;;;;1.65;1.55;;;;;;;16.41;57.80;100906.75;4962835;28;20046;-79
2021/05/19 07:36:00;;;;;;;2.40;2.10;;;;;;;16.43;57.40;100904.94;4958735;28;20039;-79
2021/05/19 07:38:25;;;;;;;4.70;1.88;;;;;;;16.46;57.39;100910.13;4980497;28;20066;-79
2021/05/19 07:40:52;;;;;;;2.50;2.00;;;;;;;16.48;57.24;100911.81;4966354;28;23308;-78
2021/05/19 07:43:19;;;;;;;1.73;1.60;;;;;;;16.52;57.31;100915.22;4977482;28;20654;-79
2021/05/19 07:45:45;;;;;;;2.53;1.70;;;;;;;16.54;57.20;100906.34;4964832;28;20054;-77
2021/05/19 07:48:11;;;;;;;9.13;2.97;;;;;;;16.57;57.24;100907.16;4958628;28;20047;-74
2021/05/19 07:50:37;;;;;;;2.88;2.00;;;;;;;16.58;56.98;100912.38;4949780;28;20042;-81
2021/05/19 07:53:04;;;;;;;1.67;1.30;;;;;;;16.61;56.96;100914.97;4967828;28;20049;-79
2021/05/19 07:55:54;;;;;;;1.65;1.55;;;;;;;16.61;57.01;100914.97;4930912;28;20038;-78
2021/05/19 07:58:24;;;;;;;3.17;1.85;;;;;;;16.63;56.94;100912.25;4950768;28;20066;-78
2021/05/19 08:03:21;;;;;;;1.30;1.20;;;;;;;16.66;56.85;100914.81;4957966;28;20043;-73
2021/05/19 08:05:46;;;;;;;1.48;1.38;;;;;;;16.67;56.70;100904.22;4963225;28;20049;-82
2021/05/19 08:08:12;;;;;;;4.10;2.22;;;;;;;16.70;56.71;100919.13;4946882;28;20058;-75
2021/05/19 08:10:41;;;;;;;3.47;1.30;;;;;;;16.72;56.76;100916.41;4953223;28;20054;-74
2021/05/19 08:13:07;;;;;;;2.90;2.38;;;;;;;16.83;56.26;100909.88;4956717;28;20802;-77
2021/05/19 08:33:31;;;;;;;3.53;2.95;;;;;;;16.20;47.72;100895.88;5073340;27;20217;-62
2021/05/19 08:35:58;;;;;;;3.15;2.40;;;;;;;15.91;46.79;100908.13;4966430;28;20061;-59
2021/05/19 08:38:23;;;;;;;2.10;1.90;;;;;;;15.39;48.15;100903.25;4994445;28;20041;-61
2021/05/19 08:40:49;;;;;;;2.72;2.05;;;;;;;14.88;50.71;100904.47;4997590;28;20040;-61
2021/05/19 08:43:15;;;;;;;2.42;2.22;;;;;;;14.69;50.13;100905.78;4978018;28;20029;-61
2021/05/19 08:45:41;;;;;;;4.20;2.42;;;;;;;14.89;49.81;100903.56;4995587;28;20129;-61
2021/05/19 08:48:08;;;;;;;4.50;2.83;;;;;;;15.19;50.12;100895.84;4996712;28;20718;-61
2021/05/19 08:50:36;;;;;;;2.97;2.63;;;;;;;15.53;48.21;100904.69;4980071;28;20026;-60
2021/05/19 08:53:09;;;;;;;2.67;1.33;;;;;;;15.92;46.46;100894.03;4979298;28;20037;-60
2021/05/19 08:55:35;;;;;;;2.65;1.60;;;;;;;16.03;46.50;100899.88;4969558;28;20037;-61
2021/05/19 08:58:02;;;;;;;2.40;1.65;;;;;;;16.29;46.10;100892.13;4975506;28;20373;-64
2021/05/19 09:00:29;;;;;;;3.47;1.60;;;;;;;16.28;44.69;100893.03;4972038;28;20781;-62
2021/05/19 09:03:09;;;;;;;1.52;1.42;;;;;;;15.80;46.13;100896.94;4976620;28;20084;-62
2021/05/19 09:05:37;;;;;;;1.15;1.05;;;;;;;16.03;44.95;100891.97;4992750;28;20150;-60
2021/05/19 09:08:16;;;;;;;5.05;1.50;;;;;;;16.70;44.40;100893.53;5017550;28;20510;-61
2021/05/19 09:10:43;;;;;;;2.63;1.55;;;;;;;17.00;42.63;100890.88;5011279;28;20085;-61
2021/05/19 09:13:41;;;;;;;1.70;1.60;;;;;;;16.41;45.03;100890.91;4975213;28;20057;-64
2021/05/19 09:16:09;;;;;;;2.85;1.70;;;;;;;15.68;46.81;100895.50;4990833;28;20046;-64
2021/05/19 09:18:54;;;;;;;5.65;1.40;;;;;;;15.25;47.78;100909.78;4970740;28;20084;-62
2021/05/19 09:21:43;;;;;;;3.25;0.93;;;;;;;14.80;48.00;100903.78;4990613;28;20038;-64
2021/05/19 09:24:27;;;;;;;3.63;1.08;;;;;;;14.72;47.46;100911.00;4993909;28;20512;-61
2021/05/19 09:26:59;;;;;;;5.10;0.80;;;;;;;14.86;46.41;100905.41;5008122;28;20413;-63
2021/05/19 09:29:33;;;;;;;1.30;0.40;;;;;;;15.02;45.26;100912.06;4997988;28;20050;-62
2021/05/19 09:32:00;;;;;;;;;;;;;;;15.00;44.84;100907.75;4975646;28;20116;-62
2021/05/19 09:34:35;;;;;;;2.42;0.57;;;;;;;15.14;44.40;100918.81;5004509;28;19971;-61
2021/05/19 09:37:25;;;;;;;2.58;0.90;;;;;;;15.28;45.09;100907.06;4970989;28;20124;-63
2021/05/19 09:40:11;;;;;;;2.78;0.77;;;;;;;15.84;45.31;100896.03;4982925;28;20049;-63
2021/05/19 09:42:36;;;;;;;7.43;1.48;;;;;;;16.14;43.91;100901.34;5005228;28;21124;-61
2021/05/19 09:45:25;;;;;;;3.53;1.95;;;;;;;16.33;44.72;100893.75;4979988;28;20034;-63
2021/05/19 09:47:54;;;;;;;1.33;1.08;;;;;;;16.32;45.29;100902.59;4961912;28;20064;-61
2021/05/19 09:50:23;;;;;;;1.55;1.45;;;;;;;16.27;45.70;100893.94;4971813;28;20056;-61
2021/05/19 09:53:14;;;;;;;2.40;1.75;;;;;;;16.31;44.63;100906.13;4964473;28;20046;-61
2021/05/19 09:55:52;;;;;;;3.47;1.27;;;;;;;16.50;44.05;100896.78;4973034;28;20038;-62
2021/05/19 09:58:31;;;;;;;1.58;1.33;;;;;;;16.65;43.72;100897.25;4979425;28;20074;-62
2021/05/19 10:00:58;;;;;;;1.40;1.30;;;;;;;16.50;44.01;100899.44;4984290;28;20607;-62
2021/05/19 10:03:23;;;;;;;1.33;1.17;;;;;;;16.58;44.20;100904.47;4977335;28;20033;-61
2021/05/19 10:05:55;;;;;;;1.50;1.40;;;;;;;16.79;43.41;100907.38;4994091;28;20673;-62
2021/05/19 10:08:21;;;;;;;2.53;0.90;;;;;;;16.57;43.68;100894.81;4962881;28;20396;-61
2021/05/19 10:10:46;;;;;;;3.65;1.27;;;;;;;17.12;42.90;100899.34;4965884;28;20030;-63
2021/05/19 10:13:14;;;;;;;0.88;0.70;;;;;;;17.53;40.42;100892.66;4973461;28;20049;-63
2021/05/19 10:15:40;;;;;;;0.88;0.70;;;;;;;17.90;39.93;100893.16;4978524;28;20134;-63
2021/05/19 10:18:10;;;;;;;2.00;0.93;;;;;;;18.28;38.60;100892.72;4977752;28;20038;-62
2021/05/19 10:20:40;;;;;;;1.05;0.77;;;;;;;19.03;36.78;100899.53;4972197;28;20044;-63
2021/05/19 10:23:08;;;;;;;1.25;1.08;;;;;;;19.76;34.67;100881.44;4962600;28;22004;-62
2021/05/19 10:25:38;;;;;;;1.67;0.55;;;;;;;19.99;34.89;100884.94;4998249;28;20138;-63
2021/05/19 10:28:15;;;;;;;3.00;1.05;;;;;;;20.65;34.27;100873.91;4977252;28;20121;-62
2021/05/19 10:30:49;;;;;;;2.35;0.60;;;;;;;20.80;34.33;100874.97;4965692;28;20477;-61
2021/05/19 10:33:30;;;;;;;0.68;0.68;;;;;;;20.81;33.00;100882.03;4960513;28;20141;-61
2021/05/19 10:35:58;;;;;;;2.20;0.80;;;;;;;20.06;34.73;100872.22;4991305;28;20054;-65
2021/05/19 10:38:28;;;;;;;1.55;0.80;;;;;;;19.73;35.78;100864.81;4992704;28;20052;-62
2021/05/19 10:41:00;;;;;;;0.60;0.55;;;;;;;20.57;34.12;100861.91;4980691;28;20039;-63
2021/05/19 10:43:48;;;;;;;3.47;1.35;;;;;;;21.21;32.67;100870.38;4968799;28;20045;-62
2021/05/19 10:46:18;;;;;;;2.75;1.10;;;;;;;21.14;33.74;100861.81;4975553;28;20066;-63
2021/05/19 10:48:54;;;;;;;1.13;0.85;;;;;;;20.89;33.65;100860.38;4962137;28;20101;-61
2021/05/19 10:57:41;;;;;;;1.90;0.90;;;;;;;22.17;31.43;100841.44;4994714;27;20559;-64
2021/05/19 11:00:25;;;;;;;3.50;1.30;;;;;;;22.07;31.30;100844.63;4979825;28;71082;-63
2021/05/19 11:02:54;;;;;;;1.10;0.90;;;;;;;20.55;34.42;100840.69;4961867;28;20414;-61
2021/05/19 11:05:23;;;;;;;1.45;1.05;;;;;;;20.51;34.34;100841.78;4972801;28;20157;-62
2021/05/19 11:08:10;;;;;;;2.00;1.00;;;;;;;20.86;32.53;100844.56;4947010;28;20054;-62
2021/05/19 11:10:41;;;;;;;2.05;1.02;;;;;;;20.98;32.86;100843.09;4968930;28;20133;-62
2021/05/19 11:13:09;;;;;;;3.28;1.75;;;;;;;21.17;33.48;100844.84;4952286;28;20096;-63
2021/05/19 11:15:36;;;;;;;1.20;1.08;;;;;;;21.47;32.35;100847.72;4962158;28;20072;-62
2021/05/19 11:18:33;;;;;;;1.45;1.13;;;;;;;20.33;34.78;100839.03;4977586;28;20223;-60
2021/05/19 11:21:02;;;;;;;1.25;1.15;;;;;;;19.22;35.49;100845.75;4962382;28;20184;-60
2021/05/19 11:23:29;;;;;;;2.50;1.05;;;;;;;18.21;36.59;100846.16;4982304;28;20150;-61
2021/05/19 11:26:16;;;;;;;1.92;0.77;;;;;;;18.80;33.20;100845.63;4968913;28;20196;-63
2021/05/19 11:28:44;;;;;;;1.05;0.52;;;;;;;20.08;31.92;100833.16;4973382;28;20374;-61
2021/05/19 11:31:14;;;;;;;1.35;0.90;;;;;;;20.11;32.29;100833.88;4962759;28;20094;-63
2021/05/19 11:34:11;;;;;;;2.55;1.30;;;;;;;19.62;34.25;100822.75;4975458;28;20474;-64
2021/05/19 11:36:50;;;;;;;2.53;2.10;;;;;;;19.31;35.71;100842.69;4965806;28;20064;-62
2021/05/19 11:39:26;;;;;;;2.67;1.80;;;;;;;18.87;36.85;100842.72;4976488;28;20715;-61
2021/05/19 11:42:27;;;;;;;3.08;1.40;;;;;;;18.28;37.31;100835.28;4978580;28;20125;-61
2021/05/19 11:45:06;;;;;;;6.40;1.33;;;;;;;19.41;35.19;100832.53;4958022;28;20552;-62
2021/05/19 11:47:33;;;;;;;1.65;1.25;;;;;;;20.91;31.41;100821.25;4953033;28;20148;-64
2021/05/19 11:50:31;;;;;;;2.22;1.40;;;;;;;21.65;30.84;100819.31;4971569;28;20298;-61
2021/05/19 11:53:09;;;;;;;4.95;1.20;;;;;;;21.57;30.86;100825.03;4963781;28;20080;-61
2021/05/19 11:55:40;;;;;;;3.70;1.67;;;;;;;21.64;31.92;100828.25;4977310;28;20070;-62
2021/05/19 11:58:25;;;;;;;3.72;1.58;;;;;;;21.21;31.11;100823.31;5008208;28;20210;-61
2021/05/19 12:00:58;;;;;;;2.33;1.33;;;;;;;20.69;31.79;100825.88;5014125;28;20908;-61
2021/05/19 12:03:29;;;;;;;1.83;1.70;;;;;;;20.14;33.30;100825.78;5006872;28;20206;-64